createdAt,value
2018-01-25T00:02:21.227Z,7.10
2018-01-25T00:04:48.189Z,7.20
2018-01-25T00:07:15.200Z,7.10
2018-01-25T00:09:42.184Z,7.20
2018-01-25T00:12:09.189Z,7.10
2018-01-25T00:14:36.174Z,7.20
2018-01-25T00:17:03.128Z,7.10
2018-01-25T00:19:30.068Z,7.10
2018-01-25T00:21:57.036Z,7.10
2018-01-25T00:24:24.780Z,7.10
2018-01-25T00:26:53.562Z,7.00
2018-01-25T00:29:22.210Z,7.10
2018-01-25T00:31:49.155Z,7.00
2018-01-25T00:34:16.136Z,7.00
2018-01-25T00:36:43.841Z,7.10
2018-01-25T00:39:10.804Z,7.00
2018-01-25T00:41:37.764Z,7.00
2018-01-25T00:44:05.485Z,7.10
2018-01-25T00:46:32.444Z,7.00
2018-01-25T00:48:59.453Z,7.10
2018-01-25T00:51:27.408Z,7.10
2018-01-25T00:53:54.450Z,7.10
2018-01-25T00:56:21.384Z,7.00
2018-01-25T00:58:48.346Z,7.10
2018-01-25T01:01:15.298Z,7.10
2018-01-25T01:03:42.255Z,7.10
2018-01-25T01:06:09.192Z,7.10
2018-01-25T01:08:37.047Z,7.00
2018-01-25T01:11:03.985Z,7.00
2018-01-25T01:13:30.956Z,7.00
2018-01-25T01:15:57.886Z,7.00
2018-01-25T01:18:25.853Z,7.00
2018-01-25T01:20:52.780Z,7.00
2018-01-25T01:23:19.735Z,7.00
2018-01-25T01:25:46.663Z,7.00
2018-01-25T01:28:13.619Z,7.00
2018-01-25T01:30:40.556Z,7.00
2018-01-25T01:33:08.445Z,6.90
2018-01-25T01:35:35.380Z,6.80
2018-01-25T01:38:02.345Z,6.90
2018-01-25T01:40:29.279Z,6.90
2018-01-25T01:42:56.244Z,6.90
2018-01-25T01:45:23.174Z,6.90
2018-01-25T01:47:50.130Z,6.80
2018-01-25T01:50:17.073Z,6.80
2018-01-25T01:52:44.958Z,6.80
2018-01-25T01:55:12.855Z,6.80
2018-01-25T01:57:39.816Z,6.80
2018-01-25T02:00:06.744Z,6.80
2018-01-25T02:02:33.701Z,6.80
2018-01-25T02:05:00.632Z,6.70
2018-01-25T02:07:27.590Z,6.70
2018-01-25T02:09:54.526Z,6.70
2018-01-25T02:12:21.485Z,6.80
2018-01-25T02:14:48.420Z,6.80
2018-01-25T02:17:15.378Z,6.80
2018-01-25T02:19:42.303Z,6.90
2018-01-25T02:22:09.265Z,6.90
2018-01-25T02:24:36.198Z,6.90
2018-01-25T02:27:03.163Z,6.90
2018-01-25T02:29:30.999Z,6.90
2018-01-25T02:31:59.932Z,6.90
2018-01-25T02:34:28.865Z,6.90
2018-01-25T02:36:56.565Z,6.90
2018-01-25T02:39:23.475Z,7.00
2018-01-25T02:41:54.413Z,7.00
2018-01-25T02:44:21.320Z,7.00
2018-01-25T02:46:49.240Z,7.00
2018-01-25T02:49:17.085Z,7.00
2018-01-25T02:51:44.777Z,7.00
2018-01-25T02:54:11.676Z,7.00
2018-01-25T02:56:38.613Z,7.00
2018-01-25T02:59:05.525Z,7.00
2018-01-25T03:01:32.450Z,7.10
2018-01-25T03:03:59.355Z,7.10
2018-01-25T03:06:26.279Z,7.10
2018-01-25T03:08:53.188Z,7.10
2018-01-25T03:11:21.051Z,7.20
2018-01-25T03:13:47.950Z,7.10
2018-01-25T03:16:15.848Z,7.20
2018-01-25T03:18:42.757Z,7.20
2018-01-25T03:21:09.693Z,7.10
2018-01-25T03:23:36.604Z,7.20
2018-01-25T03:26:03.560Z,7.20
2018-01-25T03:28:31.472Z,7.20
2018-01-25T03:30:59.385Z,7.20
2018-01-25T03:33:26.324Z,7.20
2018-01-25T03:35:53.256Z,7.20
2018-01-25T03:38:21.096Z,7.30
2018-01-25T03:40:48.024Z,7.30
2018-01-25T03:43:14.931Z,7.20
2018-01-25T03:45:41.860Z,7.30
2018-01-25T03:48:08.771Z,7.30
2018-01-25T03:50:35.704Z,7.20
2018-01-25T03:53:02.612Z,7.20
2018-01-25T03:55:29.545Z,7.30
2018-01-25T03:57:56.455Z,7.20
2018-01-25T04:00:24.192Z,7.20
2018-01-25T04:02:51.130Z,7.30
2018-01-25T04:05:18.072Z,7.30
2018-01-25T04:07:44.984Z,7.30
2018-01-25T04:10:15.454Z,7.30
2018-01-25T04:12:42.351Z,7.20
2018-01-25T04:15:09.288Z,7.30
2018-01-25T04:17:36.193Z,7.30
2018-01-25T04:20:03.124Z,7.30
2018-01-25T04:22:30.045Z,7.30
2018-01-25T04:24:56.976Z,7.30
2018-01-25T04:27:23.885Z,7.30
2018-01-25T04:29:51.588Z,7.30
2018-01-25T04:32:18.500Z,7.30
2018-01-25T04:34:46.194Z,7.30
2018-01-25T04:37:13.111Z,7.30
2018-01-25T04:39:40.805Z,7.30
2018-01-25T04:42:07.709Z,7.30
2018-01-25T04:44:35.404Z,7.30
2018-01-25T04:47:02.304Z,6.80
2018-01-25T04:49:29.244Z,7.30
2018-01-25T04:51:56.161Z,7.30
2018-01-25T04:54:23.880Z,7.30
2018-01-25T04:56:50.782Z,7.30
2018-01-25T04:59:17.704Z,7.40
2018-01-25T05:01:44.603Z,7.40
2018-01-25T05:04:12.298Z,7.40
2018-01-25T05:06:39.195Z,7.40
2018-01-25T05:09:06.134Z,7.40
2018-01-25T05:11:33.049Z,7.40
2018-01-25T05:13:59.995Z,7.40
2018-01-25T05:16:26.904Z,7.40
2018-01-25T05:18:53.848Z,7.40
2018-01-25T05:21:20.751Z,7.40
2018-01-25T05:23:47.684Z,7.40
2018-01-25T05:26:14.591Z,7.40
2018-01-25T05:28:41.536Z,7.40
2018-01-25T05:31:08.447Z,7.40
2018-01-25T05:33:36.148Z,7.30
2018-01-25T05:36:03.056Z,7.30
2018-01-25T05:38:31.747Z,7.30
2018-01-25T05:40:59.419Z,7.40
2018-01-25T05:43:26.348Z,6.90
2018-01-25T05:45:54.010Z,7.30
2018-01-25T05:48:22.708Z,7.40
2018-01-25T05:50:49.608Z,7.30
2018-01-25T05:53:16.535Z,7.30
2018-01-25T05:55:44.447Z,7.30
2018-01-25T05:58:12.143Z,7.30
2018-01-25T06:00:39.052Z,7.30
2018-01-25T06:03:06.753Z,7.30
2018-01-25T06:05:33.651Z,7.30
2018-01-25T06:08:01.552Z,7.20
2018-01-25T06:10:28.461Z,7.30
2018-01-25T06:12:55.392Z,7.30
2018-01-25T06:15:22.301Z,7.30
2018-01-25T06:17:49.233Z,7.30
2018-01-25T06:20:16.148Z,7.30
2018-01-25T06:22:43.838Z,7.20
2018-01-25T06:25:10.741Z,7.20
2018-01-25T06:27:37.667Z,7.30
2018-01-25T06:30:04.580Z,7.30
2018-01-25T06:32:31.529Z,7.30
2018-01-25T06:34:58.439Z,7.30
2018-01-25T06:37:26.147Z,7.30
2018-01-25T06:39:53.067Z,7.30
2018-01-25T06:42:20.002Z,7.30
2018-01-25T06:44:46.903Z,7.30
2018-01-25T06:47:13.832Z,7.30
2018-01-25T06:49:41.736Z,7.30
2018-01-25T06:52:09.429Z,7.30
2018-01-25T06:54:36.342Z,7.30
2018-01-25T06:57:04.044Z,7.30
2018-01-25T06:59:30.997Z,7.30
2018-01-25T07:01:57.904Z,7.30
2018-01-25T07:04:25.576Z,7.30
2018-01-25T07:06:52.540Z,7.30
2018-01-25T07:09:21.410Z,7.30
2018-01-25T07:11:48.352Z,7.30
2018-01-25T07:14:16.188Z,7.30
2018-01-25T07:16:44.098Z,7.30
2018-01-25T07:19:11.044Z,7.30
2018-01-25T07:21:39.906Z,7.30
2018-01-25T07:24:08.603Z,7.30
2018-01-25T07:26:35.518Z,7.30
2018-01-25T07:29:02.459Z,7.30
2018-01-25T07:31:29.368Z,7.30
2018-01-25T07:33:56.328Z,7.30
2018-01-25T07:36:23.236Z,7.30
2018-01-25T07:38:52.084Z,7.30
2018-01-25T07:41:19.952Z,7.30
2018-01-25T07:43:46.895Z,7.40
2018-01-25T07:46:13.803Z,7.30
2018-01-25T07:48:40.748Z,7.30
2018-01-25T07:51:07.656Z,7.40
2018-01-25T07:53:34.589Z,7.40
2018-01-25T07:56:02.264Z,7.40
2018-01-25T07:58:29.201Z,7.40
2018-01-25T08:00:56.874Z,7.30
2018-01-25T08:03:23.804Z,7.30
2018-01-25T08:05:51.476Z,7.40
2018-01-25T08:08:18.412Z,7.40
2018-01-25T08:10:46.268Z,7.40
2018-01-25T08:13:13.964Z,7.40
2018-01-25T08:15:40.868Z,7.40
2018-01-25T08:18:07.802Z,7.50
2018-01-25T08:20:34.708Z,7.50
2018-01-25T08:23:01.631Z,7.50
2018-01-25T08:25:28.564Z,7.50
2018-01-25T08:27:56.275Z,7.60
2018-01-25T08:30:23.204Z,7.60
2018-01-25T08:32:50.141Z,7.60
2018-01-25T08:35:17.063Z,7.50
2018-01-25T08:37:43.988Z,7.50
2018-01-25T08:40:11.656Z,7.50
2018-01-25T08:42:39.363Z,7.50
2018-01-25T08:45:06.300Z,7.50
2018-01-25T08:47:33.253Z,7.60
2018-01-25T08:50:00.169Z,7.60
2018-01-25T08:52:27.146Z,7.60
2018-01-25T08:54:54.054Z,7.60
2018-01-25T08:57:20.996Z,7.60
2018-01-25T08:59:49.652Z,7.70
2018-01-25T09:02:16.612Z,7.70
2018-01-25T09:04:44.293Z,7.90
2018-01-25T09:07:11.237Z,7.90
2018-01-25T09:09:39.075Z,8.10
2018-01-25T09:12:07.795Z,8.30
2018-01-25T09:14:35.608Z,8.30
2018-01-25T09:17:02.548Z,8.30
2018-01-25T09:19:29.464Z,8.30
2018-01-25T09:21:56.391Z,8.30
2018-01-25T09:24:23.324Z,8.40
2018-01-25T09:26:50.230Z,8.40
2018-01-25T09:29:17.177Z,8.40
2018-01-25T09:31:44.117Z,8.30
2018-01-25T09:34:11.032Z,8.20
2018-01-25T09:36:37.987Z,8.10
2018-01-25T09:39:04.904Z,8.10
2018-01-25T09:41:31.848Z,8.10
2018-01-25T09:43:58.760Z,8.20
2018-01-25T09:46:26.505Z,8.20
2018-01-25T09:48:54.396Z,8.10
2018-01-25T09:51:22.105Z,8.10
2018-01-25T09:53:49.019Z,8.10
2018-01-25T09:56:15.963Z,8.10
2018-01-25T09:58:42.871Z,8.10
2018-01-25T10:01:09.803Z,8.10
2018-01-25T10:03:36.744Z,8.10
2018-01-25T10:06:03.676Z,8.10
2018-01-25T10:08:31.355Z,8.00
2018-01-25T10:10:59.270Z,8.00
2018-01-25T10:13:26.167Z,8.00
2018-01-25T10:15:53.099Z,8.00
2018-01-25T10:18:20.007Z,8.10
2018-01-25T10:20:46.943Z,8.20
2018-01-25T10:23:14.626Z,8.20
2018-01-25T10:25:41.568Z,8.20
2018-01-25T10:28:08.483Z,8.20
2018-01-25T10:30:37.088Z,8.20
2018-01-25T10:33:03.992Z,8.20
2018-01-25T10:35:30.938Z,8.30
2018-01-25T10:37:57.855Z,8.40
2018-01-25T10:40:24.812Z,8.30
2018-01-25T10:42:51.724Z,8.40
2018-01-25T10:45:19.554Z,8.40
2018-01-25T10:47:47.223Z,8.30
2018-01-25T10:50:14.156Z,8.30
2018-01-25T10:52:41.850Z,8.30
2018-01-25T10:55:08.789Z,8.30
2018-01-25T10:57:35.691Z,8.50
2018-01-25T11:00:02.628Z,8.60
2018-01-25T11:02:29.544Z,8.50
2018-01-25T11:04:56.481Z,8.70
2018-01-25T11:07:23.396Z,8.70
2018-01-25T11:09:51.100Z,8.50
2018-01-25T11:12:18.037Z,8.50
2018-01-25T11:14:45.000Z,8.50
2018-01-25T11:17:11.928Z,8.50
2018-01-25T11:19:38.888Z,8.50
2018-01-25T11:22:05.800Z,8.40
2018-01-25T11:24:32.740Z,8.40
2018-01-25T11:26:59.648Z,8.40
2018-01-25T11:29:26.607Z,8.30
2018-01-25T11:31:54.428Z,8.30
2018-01-25T11:34:22.284Z,8.40
2018-01-25T11:36:49.207Z,8.40
2018-01-25T11:39:16.152Z,8.40
2018-01-25T11:41:44.000Z,8.40
2018-01-25T11:44:10.931Z,8.50
2018-01-25T11:46:37.859Z,8.60
2018-01-25T11:49:04.799Z,8.50
2018-01-25T11:51:31.708Z,8.50
2018-01-25T11:53:58.697Z,8.50
2018-01-25T11:56:25.679Z,8.60
2018-01-25T11:58:53.380Z,8.50
2018-01-25T12:01:20.305Z,8.50
2018-01-25T12:03:47.239Z,8.50
2018-01-25T12:06:14.163Z,8.50
2018-01-25T12:08:41.108Z,8.50
2018-01-25T12:11:08.034Z,8.40
2018-01-25T12:13:35.752Z,8.60
2018-01-25T12:16:02.669Z,8.50
2018-01-25T12:18:29.616Z,8.60
2018-01-25T12:20:56.539Z,8.50
2018-01-25T12:23:23.490Z,8.50
2018-01-25T12:25:50.406Z,8.60
2018-01-25T12:28:17.339Z,8.60
2018-01-25T12:30:44.264Z,8.60
2018-01-25T12:33:11.204Z,8.50
2018-01-25T12:35:38.124Z,8.50
2018-01-25T12:38:05.081Z,8.60
2018-01-25T12:40:32.004Z,8.60
2018-01-25T12:42:59.928Z,8.60
2018-01-25T12:45:26.806Z,8.50
2018-01-25T12:47:54.065Z,8.60
2018-01-25T12:50:20.983Z,8.60
2018-01-25T12:52:48.701Z,8.60
2018-01-25T12:55:16.652Z,8.60
2018-01-25T12:57:43.596Z,8.60
2018-01-25T13:00:10.507Z,8.80
2018-01-25T13:02:38.228Z,8.80
2018-01-25T13:05:06.139Z,8.80
2018-01-25T13:07:33.845Z,8.80
2018-01-25T13:10:00.759Z,8.80
2018-01-25T13:12:27.699Z,8.80
2018-01-25T13:14:54.627Z,8.80
2018-01-25T13:17:24.274Z,8.80
2018-01-25T13:19:51.197Z,8.80
2018-01-25T13:22:18.904Z,8.90
2018-01-25T13:24:45.827Z,8.90
2018-01-25T13:27:12.755Z,8.80
2018-01-25T13:29:39.671Z,8.70
2018-01-25T13:32:07.427Z,8.80
2018-01-25T13:34:34.324Z,8.70
2018-01-25T13:37:01.260Z,8.90
2018-01-25T13:39:29.096Z,8.90
2018-01-25T13:41:57.829Z,8.80
2018-01-25T13:44:24.744Z,8.80
2018-01-25T13:46:52.452Z,8.80
2018-01-25T13:49:20.404Z,8.80
2018-01-25T13:51:47.324Z,8.80
2018-01-25T13:54:14.261Z,8.80
2018-01-25T13:56:42.960Z,8.80
2018-01-25T13:59:09.872Z,8.80
2018-01-25T14:01:38.536Z,8.80
2018-01-25T14:04:05.452Z,8.80
2018-01-25T14:06:32.444Z,8.80
2018-01-25T14:08:59.329Z,8.80
2018-01-25T14:11:26.277Z,8.80
2018-01-25T14:13:54.229Z,8.70
2018-01-25T14:16:21.192Z,8.70
2018-01-25T14:18:48.105Z,8.70
2018-01-25T14:21:15.042Z,8.70
2018-01-25T14:23:41.992Z,8.60
2018-01-25T14:26:08.936Z,8.60
2018-01-25T14:28:35.881Z,8.70
2018-01-25T14:31:02.805Z,8.50
2018-01-25T14:33:29.764Z,8.50
2018-01-25T14:35:56.717Z,8.50
2018-01-25T14:38:23.678Z,8.40
2018-01-25T14:40:50.600Z,8.40
2018-01-25T14:43:19.273Z,8.40
2018-01-25T14:45:47.242Z,8.30
2018-01-25T14:48:15.200Z,8.40
2018-01-25T14:50:43.093Z,8.30
2018-01-25T14:53:10.035Z,8.30
2018-01-25T14:55:36.952Z,8.30
2018-01-25T14:58:04.937Z,8.30
2018-01-25T15:00:31.900Z,8.30
2018-01-25T15:02:59.113Z,8.30
2018-01-25T15:05:25.903Z,8.30
2018-01-25T15:07:52.874Z,8.40
2018-01-25T15:10:19.824Z,8.30
2018-01-25T15:12:47.511Z,8.10
2018-01-25T15:15:14.448Z,8.10
2018-01-25T15:17:42.276Z,8.10
2018-01-25T15:20:09.217Z,8.10
2018-01-25T15:22:36.186Z,8.10
2018-01-25T15:25:05.798Z,8.20
2018-01-25T15:27:32.746Z,8.10
2018-01-25T15:30:00.428Z,8.10
2018-01-25T15:32:29.336Z,8.20
2018-01-25T15:34:56.341Z,8.20
2018-01-25T15:37:23.706Z,8.20
2018-01-25T15:39:50.653Z,8.10
2018-01-25T15:42:17.678Z,8.10
2018-01-25T15:44:46.088Z,8.20
2018-01-25T15:47:13.058Z,8.20
2018-01-25T15:49:40.853Z,8.10
2018-01-25T15:52:07.783Z,8.10
2018-01-25T15:54:34.727Z,8.00
2018-01-25T15:57:02.665Z,7.90
2018-01-25T15:59:29.651Z,7.90
2018-01-25T16:01:56.600Z,7.80
2018-01-25T16:04:24.932Z,7.70
2018-01-25T16:06:51.952Z,7.70
2018-01-25T16:09:18.941Z,7.60
2018-01-25T16:11:48.404Z,7.60
2018-01-25T16:14:15.374Z,7.60
2018-01-25T16:16:42.287Z,7.60
2018-01-25T16:19:09.232Z,7.60
2018-01-25T16:21:36.144Z,7.60
2018-01-25T16:24:07.312Z,7.50
2018-01-25T16:26:34.244Z,7.50
2018-01-25T16:29:01.233Z,7.50
2018-01-25T16:31:28.153Z,7.50
2018-01-25T16:33:55.108Z,7.40
2018-01-25T16:36:22.032Z,7.40
2018-01-25T16:38:48.989Z,7.50
2018-01-25T16:41:15.912Z,7.70
2018-01-25T16:43:42.867Z,7.70
2018-01-25T16:46:09.793Z,7.80
2018-01-25T16:48:36.743Z,7.80
2018-01-25T16:51:03.701Z,7.80
2018-01-25T16:53:30.655Z,7.80
2018-01-25T16:55:57.567Z,7.70
2018-01-25T16:58:24.513Z,7.70
2018-01-25T17:00:51.432Z,7.60
2018-01-25T17:03:18.384Z,7.70
2018-01-25T17:05:46.086Z,7.60
2018-01-25T17:08:14.074Z,7.60
2018-01-25T17:10:41.037Z,7.50
2018-01-25T17:13:08.972Z,7.50
2018-01-25T17:15:35.891Z,7.50
2018-01-25T17:18:02.842Z,7.50
2018-01-25T17:20:30.729Z,7.50
2018-01-25T17:22:58.721Z,7.50
2018-01-25T17:25:27.672Z,7.60
2018-01-25T17:27:55.316Z,7.60
2018-01-25T17:30:23.026Z,7.60
2018-01-25T17:32:49.994Z,7.60
2018-01-25T17:35:16.980Z,7.60
2018-01-25T17:37:43.895Z,7.60
2018-01-25T17:40:11.585Z,7.70
2018-01-25T17:42:39.463Z,7.70
2018-01-25T17:45:07.416Z,7.70
2018-01-25T17:47:34.372Z,7.70
2018-01-25T17:50:01.295Z,7.70
2018-01-25T17:52:28.263Z,7.70
2018-01-25T17:54:55.192Z,7.70
2018-01-25T17:57:22.155Z,7.70
2018-01-25T17:59:49.079Z,7.70
2018-01-25T18:02:16.054Z,7.70
2018-01-25T18:04:42.996Z,7.60
2018-01-25T18:07:09.956Z,7.60
2018-01-25T18:09:36.888Z,7.60
2018-01-25T18:12:03.849Z,7.70
2018-01-25T18:14:30.799Z,7.60
2018-01-25T18:16:58.754Z,7.60
2018-01-25T18:19:25.681Z,7.60
2018-01-25T18:21:52.625Z,7.60
2018-01-25T18:24:19.546Z,7.50
2018-01-25T18:26:47.273Z,7.50
2018-01-25T18:29:15.120Z,7.40
2018-01-25T18:31:43.068Z,7.50
2018-01-25T18:34:10.022Z,7.50
2018-01-25T18:36:36.952Z,7.50
2018-01-25T18:39:05.800Z,7.50
2018-01-25T18:41:33.692Z,7.40
2018-01-25T18:44:01.399Z,7.30
2018-01-25T18:46:29.338Z,7.30
2018-01-25T18:48:56.294Z,7.30
2018-01-25T18:51:23.213Z,7.30
2018-01-25T18:53:50.922Z,7.30
2018-01-25T18:56:19.293Z,7.30
2018-01-25T18:58:47.056Z,7.20
2018-01-25T19:01:13.989Z,7.20
2018-01-25T19:03:40.936Z,7.20
2018-01-25T19:06:08.779Z,7.20
2018-01-25T19:08:35.723Z,7.20
2018-01-25T19:11:02.648Z,7.20
2018-01-25T19:13:30.371Z,7.10
2018-01-25T19:15:57.329Z,7.20
2018-01-25T19:18:26.300Z,7.20
2018-01-25T19:20:54.239Z,7.20
2018-01-25T19:23:21.190Z,7.20
2018-01-25T19:25:48.120Z,7.20
2018-01-25T19:28:15.893Z,7.10
2018-01-25T19:30:43.572Z,7.10
2018-01-25T19:33:11.432Z,7.10
2018-01-25T19:35:38.361Z,7.00
2018-01-25T19:38:05.364Z,7.10
2018-01-25T19:40:32.304Z,7.10
2018-01-25T19:42:59.260Z,7.00
2018-01-25T19:45:26.180Z,7.10
2018-01-25T19:47:53.128Z,7.10
2018-01-25T19:50:20.065Z,7.00
2018-01-25T19:52:48.056Z,7.00
2018-01-25T19:55:16.700Z,7.00
2018-01-25T19:57:45.566Z,7.00
2018-01-25T20:00:14.334Z,7.00
2018-01-25T20:02:42.196Z,7.10
2018-01-25T20:05:09.152Z,7.00
2018-01-25T20:07:41.254Z,7.10
2018-01-25T20:10:08.239Z,7.10
2018-01-25T20:12:35.240Z,7.10
2018-01-25T20:15:02.219Z,7.10
2018-01-25T20:17:29.229Z,7.20
2018-01-25T20:19:56.237Z,7.20
2018-01-25T20:22:23.243Z,7.20
2018-01-25T20:24:50.186Z,7.10
